Time,TemperatureF,DewpointF,PressureIn,WindDirection,WindDirectionDegrees,WindSpeedMPH,WindSpeedGustMPH,Humidity,HourlyPrecipIn,Conditions,Clouds,dailyrainin,SoftwareType,DateUTC
2013-02-09 00:22:00,29.0,-99.9,29.80,NNE,19,-999.0,-999.0,-999,-99.99,,,-99.99,,2013-02-09 05:22:00,
2013-02-09 00:32:00,29.0,-99.9,29.80,NNE,19,-999.0,-999.0,-999,-99.99,,,-99.99,,2013-02-09 05:32:00,
2013-02-09 00:42:00,29.0,-99.9,29.80,NNE,19,-999.0,-999.0,-999,-99.99,,,-99.99,,2013-02-09 05:42:00,
2013-02-09 00:52:00,29.0,-99.9,29.80,NNE,19,-999.0,-999.0,-999,-99.99,,,-99.99,,2013-02-09 05:52:00,
2013-02-09 01:22:00,29.0,-99.9,29.80,NNE,19,-999.0,-999.0,-999,-99.99,,,-99.99,,2013-02-09 06:22:00,
2013-02-09 01:32:00,29.0,-99.9,29.80,NNE,19,-999.0,-999.0,-999,-99.99,,,-99.99,,2013-02-09 06:32:00,
2013-02-09 01:42:00,29.0,-99.9,29.80,NNE,19,-999.0,-999.0,-999,-99.99,,,-99.99,,2013-02-09 06:42:00,
2013-02-09 01:52:00,29.0,-99.9,29.80,NNE,19,-999.0,-999.0,-999,-99.99,,,-99.99,,2013-02-09 06:52:00,
2013-02-09 02:32:00,29.0,-99.9,29.82,NNE,19,-999.0,-999.0,-999,-99.99,,,-99.99,,2013-02-09 07:32:00,
2013-02-09 02:42:00,29.0,-99.9,29.82,NNE,19,-999.0,-999.0,-999,-99.99,,,-99.99,,2013-02-09 07:42:00,
2013-02-09 02:52:00,29.0,-99.9,29.82,NNE,19,-999.0,-999.0,-999,-99.99,,,-99.99,,2013-02-09 07:52:00,
2013-02-09 03:22:00,28.0,-99.9,29.85,NNE,19,-999.0,-999.0,-999,-99.99,,,-99.99,,2013-02-09 08:22:00,
2013-02-09 03:32:00,28.0,-99.9,29.85,NNE,19,-999.0,-999.0,-999,-99.99,,,-99.99,,2013-02-09 08:32:00,
2013-02-09 03:42:00,28.0,-99.9,29.85,NNE,19,-999.0,-999.0,-999,-99.99,,,-99.99,,2013-02-09 08:42:00,
2013-02-09 04:22:00,25.0,-99.9,29.88,NNE,19,-999.0,-999.0,-999,-99.99,,,-99.99,,2013-02-09 09:22:00,
2013-02-09 04:32:00,25.0,-99.9,29.88,NNE,19,-999.0,-999.0,-999,-99.99,,,-99.99,,2013-02-09 09:32:00,
2013-02-09 04:42:00,25.0,-99.9,29.88,NNE,19,-999.0,-999.0,-999,-99.99,,,-99.99,,2013-02-09 09:42:00,
2013-02-09 04:52:00,25.0,-99.9,29.88,NNE,19,-999.0,-999.0,-999,-99.99,,,-99.99,,2013-02-09 09:52:00,
2013-02-09 05:32:00,24.0,-99.9,29.91,NNE,19,-999.0,-999.0,-999,-99.99,,,-99.99,,2013-02-09 10:32:00,
2013-02-09 05:42:00,24.0,-99.9,29.91,NNE,19,-999.0,-999.0,-999,-99.99,,,-99.99,,2013-02-09 10:42:00,
2013-02-09 05:52:00,24.0,-99.9,29.91,NNE,19,-999.0,-999.0,-999,-99.99,,,-99.99,,2013-02-09 10:52:00,
2013-02-09 06:22:00,24.0,-99.9,29.93,NNE,19,-999.0,-999.0,-999,-99.99,,,-99.99,,2013-02-09 11:22:00,
2013-02-09 06:32:00,24.0,-99.9,29.93,NNE,19,-999.0,-999.0,-999,-99.99,,,-99.99,,2013-02-09 11:32:00,
2013-02-09 06:42:00,24.0,-99.9,29.93,NNE,19,-999.0,-999.0,-999,-99.99,,,-99.99,,2013-02-09 11:42:00,
2013-02-09 06:52:00,24.0,-99.9,29.93,NNE,19,-999.0,-999.0,-999,-99.99,,,-99.99,,2013-02-09 11:52:00,
2013-02-09 06:53:00,22.0,-99.9,29.97,NNE,19,-999.0,-999.0,-999,-99.99,,,-99.99,,2013-02-09 11:53:00,
2013-02-09 07:22:00,22.0,-99.9,29.97,NNE,19,-999.0,-999.0,-999,-99.99,,,-99.99,,2013-02-09 12:22:00,
2013-02-09 07:32:00,22.0,-99.9,29.97,NNE,19,-999.0,-999.0,-999,-99.99,,,-99.99,,2013-02-09 12:32:00,
2013-02-09 07:42:00,22.0,-99.9,29.97,NNE,19,-999.0,-999.0,-999,-99.99,,,-99.99,,2013-02-09 12:42:00,
2013-02-09 08:22:00,22.0,-99.9,30.00,NNE,19,-999.0,-999.0,-999,-99.99,,,-99.99,,2013-02-09 13:22:00,
2013-02-09 08:32:00,22.0,-99.9,30.00,NNE,19,-999.0,-999.0,-999,-99.99,,,-99.99,,2013-02-09 13:32:00,
2013-02-09 08:42:00,22.0,-99.9,30.00,NNE,19,-999.0,-999.0,-999,-99.99,,,-99.99,,2013-02-09 13:42:00,
2013-02-09 08:52:00,22.0,-99.9,30.00,NNE,19,-999.0,-999.0,-999,-99.99,,,-99.99,,2013-02-09 13:52:00,
2013-02-09 09:22:00,24.0,-99.9,30.03,North,355,-999.0,5.0,-999,-99.99,,,-99.99,,2013-02-09 14:22:00,
2013-02-09 09:32:00,24.0,-99.9,30.03,North,355,-999.0,5.0,-999,-99.99,,,-99.99,,2013-02-09 14:32:00,
2013-02-09 09:42:00,24.0,-99.9,30.03,North,355,-999.0,5.0,-999,-99.99,,,-99.99,,2013-02-09 14:42:00,
2013-02-09 09:52:00,24.0,-99.9,30.03,North,355,-999.0,5.0,-999,-99.99,,,-99.99,,2013-02-09 14:52:00,
2013-02-09 10:32:00,25.0,-99.9,30.07,NNE,20,8.0,17.0,-999,-99.99,,,-99.99,,2013-02-09 15:32:00,
2013-02-09 10:42:00,25.0,-99.9,30.07,NNE,20,8.0,17.0,-999,-99.99,,,-99.99,,2013-02-09 15:42:00,
2013-02-09 10:52:00,25.0,-99.9,30.07,NNE,20,8.0,17.0,-999,-99.99,,,-99.99,,2013-02-09 15:52:00,
2013-02-09 11:22:00,29.0,-99.9,30.09,NNE,13,-999.0,16.0,-999,-99.99,,,-99.99,,2013-02-09 16:22:00,
2013-02-09 11:32:00,29.0,-99.9,30.09,NNE,13,-999.0,16.0,-999,-99.99,,,-99.99,,2013-02-09 16:32:00,
2013-02-09 11:42:00,29.0,-99.9,30.09,NNE,13,-999.0,16.0,-999,-99.99,,,-99.99,,2013-02-09 16:42:00,
2013-02-09 11:52:00,29.0,-99.9,30.09,NNE,13,-999.0,16.0,-999,-99.99,,,-99.99,,2013-02-09 16:52:00,
2013-02-09 12:22:00,31.0,-99.9,30.11,NE,34,6.0,15.0,-999,-99.99,,,-99.99,,2013-02-09 17:22:00,
2013-02-09 12:32:00,31.0,-99.9,30.11,NE,34,6.0,15.0,-999,-99.99,,,-99.99,,2013-02-09 17:32:00,
2013-02-09 12:42:00,31.0,-99.9,30.11,NE,34,6.0,15.0,-999,-99.99,,,-99.99,,2013-02-09 17:42:00,
2013-02-09 12:52:00,31.0,-99.9,30.11,NE,34,6.0,15.0,-999,-99.99,,,-99.99,,2013-02-09 17:52:00,
2013-02-09 13:23:00,32.0,-99.9,30.11,North,9,-999.0,12.0,-999,-99.99,,,-99.99,,2013-02-09 18:23:00,
2013-02-09 13:32:00,32.0,-99.9,30.11,North,9,-999.0,12.0,-999,-99.99,,,-99.99,,2013-02-09 18:32:00,
2013-02-09 13:42:00,32.0,-99.9,30.11,North,9,-999.0,12.0,-999,-99.99,,,-99.99,,2013-02-09 18:42:00,
2013-02-09 13:52:00,32.0,-99.9,30.11,North,9,-999.0,12.0,-999,-99.99,,,-99.99,,2013-02-09 18:52:00,
2013-02-09 14:22:00,33.0,-99.9,30.13,NNE,19,7.0,10.0,-999,-99.99,,,-99.99,,2013-02-09 19:22:00,
2013-02-09 14:32:00,33.0,-99.9,30.13,NNE,19,7.0,10.0,-999,-99.99,,,-99.99,,2013-02-09 19:32:00,
2013-02-09 14:42:00,33.0,-99.9,30.13,NNE,19,7.0,10.0,-999,-99.99,,,-99.99,,2013-02-09 19:42:00,
2013-02-09 14:52:00,33.0,-99.9,30.13,NNE,19,7.0,10.0,-999,-99.99,,,-99.99,,2013-02-09 19:52:00,
2013-02-09 15:22:00,32.0,-99.9,30.14,ENE,67,7.0,16.0,-999,-99.99,,,-99.99,,2013-02-09 20:22:00,
2013-02-09 15:32:00,32.0,-99.9,30.14,ENE,67,7.0,16.0,-999,-99.99,,,-99.99,,2013-02-09 20:32:00,
2013-02-09 15:42:00,32.0,-99.9,30.14,ENE,67,7.0,16.0,-999,-99.99,,,-99.99,,2013-02-09 20:42:00,
2013-02-09 15:52:00,32.0,-99.9,30.14,ENE,67,7.0,16.0,-999,-99.99,,,-99.99,,2013-02-09 20:52:00,
2013-02-09 16:22:00,27.0,-99.9,30.18,NNW,342,-999.0,10.0,-999,-99.99,,,-99.99,,2013-02-09 21:22:00,
2013-02-09 16:32:00,27.0,-99.9,30.18,NNW,342,-999.0,10.0,-999,-99.99,,,-99.99,,2013-02-09 21:32:00,
2013-02-09 16:42:00,27.0,-99.9,30.18,NNW,342,-999.0,10.0,-999,-99.99,,,-99.99,,2013-02-09 21:42:00,
2013-02-09 16:52:00,27.0,-99.9,30.18,NNW,342,-999.0,10.0,-999,-99.99,,,-99.99,,2013-02-09 21:52:00,
2013-02-09 17:22:00,25.0,-99.9,30.20,NW,319,-999.0,10.0,-999,-99.99,,,-99.99,,2013-02-09 22:22:00,
2013-02-09 17:32:00,25.0,-99.9,30.20,NW,319,-999.0,10.0,-999,-99.99,,,-99.99,,2013-02-09 22:32:00,
2013-02-09 17:42:00,25.0,-99.9,30.20,NW,319,-999.0,10.0,-999,-99.99,,,-99.99,,2013-02-09 22:42:00,
2013-02-09 17:52:00,25.0,-99.9,30.20,NW,319,-999.0,10.0,-999,-99.99,,,-99.99,,2013-02-09 22:52:00,
2013-02-09 18:22:00,22.0,-99.9,30.23,NNE,16,-999.0,10.0,-999,-99.99,,,-99.99,,2013-02-09 23:22:00,
2013-02-09 18:32:00,22.0,-99.9,30.23,NNE,16,-999.0,10.0,-999,-99.99,,,-99.99,,2013-02-09 23:32:00,
2013-02-09 18:42:00,22.0,-99.9,30.23,NNE,16,-999.0,10.0,-999,-99.99,,,-99.99,,2013-02-09 23:42:00,
2013-02-09 18:52:00,22.0,-99.9,30.23,NNE,16,-999.0,10.0,-999,-99.99,,,-99.99,,2013-02-09 23:52:00,
2013-02-09 19:22:00,21.0,-99.9,30.25,North,352,-999.0,8.0,-999,-99.99,,,-99.99,,2013-02-10 00:22:00,
2013-02-09 19:32:00,21.0,-99.9,30.25,North,352,-999.0,8.0,-999,-99.99,,,-99.99,,2013-02-10 00:32:00,
2013-02-09 19:42:00,21.0,-99.9,30.25,North,352,-999.0,8.0,-999,-99.99,,,-99.99,,2013-02-10 00:42:00,
2013-02-09 19:52:00,21.0,-99.9,30.25,North,352,-999.0,8.0,-999,-99.99,,,-99.99,,2013-02-10 00:52:00,
2013-02-09 21:22:00,19.0,-99.9,30.33,North,-999,-999.0,13.0,-999,-99.99,,,-99.99,,2013-02-10 02:22:00,
2013-02-09 21:32:00,19.0,-99.9,30.33,North,-999,-999.0,13.0,-999,-99.99,,,-99.99,,2013-02-10 02:32:00,
2013-02-09 21:42:00,19.0,-99.9,30.33,North,-999,-999.0,13.0,-999,-99.99,,,-99.99,,2013-02-10 02:42:00,
2013-02-09 21:52:00,19.0,-99.9,30.33,North,-999,-999.0,13.0,-999,-99.99,,,-99.99,,2013-02-10 02:52:00,
2013-02-09 22:22:00,17.0,-99.9,30.35,SW,233,-999.0,3.0,-999,-99.99,,,-99.99,,2013-02-10 03:22:00,
2013-02-09 22:32:00,17.0,-99.9,30.35,SW,233,-999.0,3.0,-999,-99.99,,,-99.99,,2013-02-10 03:32:00,
2013-02-09 22:42:00,17.0,-99.9,30.35,SW,233,-999.0,3.0,-999,-99.99,,,-99.99,,2013-02-10 03:42:00,
2013-02-09 22:52:00,17.0,-99.9,30.35,SW,233,-999.0,3.0,-999,-99.99,,,-99.99,,2013-02-10 03:52:00,
2013-02-09 23:22:00,16.0,-99.9,30.36,North,-999,-999.0,-999.0,-999,-99.99,,,-99.99,,2013-02-10 04:22:00,
2013-02-09 23:32:00,16.0,-99.9,30.36,North,-999,-999.0,-999.0,-999,-99.99,,,-99.99,,2013-02-10 04:32:00,
2013-02-09 23:42:00,16.0,-99.9,30.36,North,-999,-999.0,-999.0,-999,-99.99,,,-99.99,,2013-02-10 04:42:00,
2013-02-09 23:52:00,16.0,-99.9,30.36,North,-999,-999.0,-999.0,-999,-99.99,,,-99.99,,2013-02-10 04:52:00,